sensor_id;sensor_type;location;lat;lon;timestamp;temperature;humidity
12769;DHT22;6448;48.916;8.990;2022-09-29T00:00:28;15.00;54.50
12769;DHT22;6448;48.916;8.990;2022-09-29T00:01:30;15.00;54.60
12769;DHT22;6448;48.916;8.990;2022-09-29T00:02:31;14.90;54.50
12769;DHT22;6448;48.916;8.990;2022-09-29T00:03:32;15.00;54.60
12769;DHT22;6448;48.916;8.990;2022-09-29T00:04:34;15.00;54.70
12769;DHT22;6448;48.916;8.990;2022-09-29T00:05:35;15.00;54.70
12769;DHT22;6448;48.916;8.990;2022-09-29T00:06:37;15.00;54.70
12769;DHT22;6448;48.916;8.990;2022-09-29T00:07:38;14.90;54.60
12769;DHT22;6448;48.916;8.990;2022-09-29T00:08:40;15.00;54.80
12769;DHT22;6448;48.916;8.990;2022-09-29T00:09:41;15.00;54.80
12769;DHT22;6448;48.916;8.990;2022-09-29T00:10:42;15.00;54.80
12769;DHT22;6448;48.916;8.990;2022-09-29T00:11:43;15.00;54.80
12769;DHT22;6448;48.916;8.990;2022-09-29T00:12:45;15.00;54.80
12769;DHT22;6448;48.916;8.990;2022-09-29T00:13:47;15.10;54.80
12769;DHT22;6448;48.916;8.990;2022-09-29T00:14:50;15.00;54.80
12769;DHT22;6448;48.916;8.990;2022-09-29T00:15:59;15.00;54.80
12769;DHT22;6448;48.916;8.990;2022-09-29T00:17:01;15.00;54.80
12769;DHT22;6448;48.916;8.990;2022-09-29T00:18:02;15.00;54.80
12769;DHT22;6448;48.916;8.990;2022-09-29T00:19:04;15.00;54.90
12769;DHT22;6448;48.916;8.990;2022-09-29T00:20:05;15.10;54.90
12769;DHT22;6448;48.916;8.990;2022-09-29T00:21:13;15.00;54.90
12769;DHT22;6448;48.916;8.990;2022-09-29T00:22:14;14.90;55.00
12769;DHT22;6448;48.916;8.990;2022-09-29T00:23:15;15.00;55.00
12769;DHT22;6448;48.916;8.990;2022-09-29T00:24:16;14.90;55.00
12769;DHT22;6448;48.916;8.990;2022-09-29T00:25:18;14.90;55.00
12769;DHT22;6448;48.916;8.990;2022-09-29T00:26:21;14.90;54.90
12769;DHT22;6448;48.916;8.990;2022-09-29T00:27:23;14.90;55.00
12769;DHT22;6448;48.916;8.990;2022-09-29T00:28:24;14.80;55.00
12769;DHT22;6448;48.916;8.990;2022-09-29T00:29:26;14.90;55.00
12769;DHT22;6448;48.916;8.990;2022-09-29T00:30:29;14.90;55.00
12769;DHT22;6448;48.916;8.990;2022-09-29T00:31:32;14.90;55.00
12769;DHT22;6448;48.916;8.990;2022-09-29T00:32:34;15.20;55.20
12769;DHT22;6448;48.916;8.990;2022-09-29T00:33:36;14.90;55.00
12769;DHT22;6448;48.916;8.990;2022-09-29T00:34:38;14.90;55.00
12769;DHT22;6448;48.916;8.990;2022-09-29T00:35:39;14.90;54.90
12769;DHT22;6448;48.916;8.990;2022-09-29T00:36:40;15.10;55.10
12769;DHT22;6448;48.916;8.990;2022-09-29T00:37:41;15.00;55.00
12769;DHT22;6448;48.916;8.990;2022-09-29T00:38:44;15.10;55.00
12769;DHT22;6448;48.916;8.990;2022-09-29T00:39:46;14.90;55.00
12769;DHT22;6448;48.916;8.990;2022-09-29T00:40:48;14.90;54.90
12769;DHT22;6448;48.916;8.990;2022-09-29T00:41:48;15.10;55.00
12769;DHT22;6448;48.916;8.990;2022-09-29T00:42:50;14.90;54.90
12769;DHT22;6448;48.916;8.990;2022-09-29T00:43:54;14.80;54.90
12769;DHT22;6448;48.916;8.990;2022-09-29T00:45:19;14.90;55.00
12769;DHT22;6448;48.916;8.990;2022-09-29T00:46:36;14.80;55.00
12769;DHT22;6448;48.916;8.990;2022-09-29T00:47:40;14.80;55.00
12769;DHT22;6448;48.916;8.990;2022-09-29T00:48:44;14.80;55.00
12769;DHT22;6448;48.916;8.990;2022-09-29T00:49:49;14.80;54.90
12769;DHT22;6448;48.916;8.990;2022-09-29T00:50:54;14.80;54.90
12769;DHT22;6448;48.916;8.990;2022-09-29T00:52:00;14.80;54.90
12769;DHT22;6448;48.916;8.990;2022-09-29T00:53:02;14.80;54.90
12769;DHT22;6448;48.916;8.990;2022-09-29T00:54:04;14.80;54.90
12769;DHT22;6448;48.916;8.990;2022-09-29T00:55:12;14.80;54.90
12769;DHT22;6448;48.916;8.990;2022-09-29T00:56:15;14.80;54.80
12769;DHT22;6448;48.916;8.990;2022-09-29T00:57:22;14.80;54.80
12769;DHT22;6448;48.916;8.990;2022-09-29T00:58:29;14.70;54.80
12769;DHT22;6448;48.916;8.990;2022-09-29T00:59:37;14.80;54.90
12769;DHT22;6448;48.916;8.990;2022-09-29T01:00:39;14.80;54.90
12769;DHT22;6448;48.916;8.990;2022-09-29T01:01:45;14.70;54.90
12769;DHT22;6448;48.916;8.990;2022-09-29T01:02:50;14.70;54.90
12769;DHT22;6448;48.916;8.990;2022-09-29T01:03:54;14.70;55.00
12769;DHT22;6448;48.916;8.990;2022-09-29T01:04:57;14.70;55.00
12769;DHT22;6448;48.916;8.990;2022-09-29T01:06:02;14.70;55.00
12769;DHT22;6448;48.916;8.990;2022-09-29T01:07:04;15.10;55.10
12769;DHT22;6448;48.916;8.990;2022-09-29T01:08:12;14.70;54.90
12769;DHT22;6448;48.916;8.990;2022-09-29T01:09:17;14.60;54.90
12769;DHT22;6448;48.916;8.990;2022-09-29T01:10:18;14.60;54.90
12769;DHT22;6448;48.916;8.990;2022-09-29T01:11:21;14.70;54.90
12769;DHT22;6448;48.916;8.990;2022-09-29T01:12:22;14.70;54.80
12769;DHT22;6448;48.916;8.990;2022-09-29T01:13:24;14.70;54.90
12769;DHT22;6448;48.916;8.990;2022-09-29T01:14:26;14.80;54.80
12769;DHT22;6448;48.916;8.990;2022-09-29T01:15:29;14.60;54.70
12769;DHT22;6448;48.916;8.990;2022-09-29T01:16:32;14.60;54.70
12769;DHT22;6448;48.916;8.990;2022-09-29T01:17:35;14.60;54.80
12769;DHT22;6448;48.916;8.990;2022-09-29T01:18:37;14.60;54.70
12769;DHT22;6448;48.916;8.990;2022-09-29T01:19:46;14.60;54.70
12769;DHT22;6448;48.916;8.990;2022-09-29T01:21:03;14.60;54.80
12769;DHT22;6448;48.916;8.990;2022-09-29T01:22:10;14.60;54.90
12769;DHT22;6448;48.916;8.990;2022-09-29T01:23:31;14.60;54.90
12769;DHT22;6448;48.916;8.990;2022-09-29T01:24:53;14.60;54.90
12769;DHT22;6448;48.916;8.990;2022-09-29T01:28:16;14.60;55.00
12769;DHT22;6448;48.916;8.990;2022-09-29T01:29:52;14.60;55.10
12769;DHT22;6448;48.916;8.990;2022-09-29T01:31:05;14.60;55.10
12769;DHT22;6448;48.916;8.990;2022-09-29T01:32:18;14.60;55.20
12769;DHT22;6448;48.916;8.990;2022-09-29T01:33:30;14.60;55.20
12769;DHT22;6448;48.916;8.990;2022-09-29T01:34:42;14.90;55.30
12769;DHT22;6448;48.916;8.990;2022-09-29T01:35:51;14.60;55.20
12769;DHT22;6448;48.916;8.990;2022-09-29T01:37:04;14.60;55.20
12769;DHT22;6448;48.916;8.990;2022-09-29T01:38:24;14.60;55.30
12769;DHT22;6448;48.916;8.990;2022-09-29T01:39:30;14.60;55.30
12769;DHT22;6448;48.916;8.990;2022-09-29T01:40:39;14.60;55.30
12769;DHT22;6448;48.916;8.990;2022-09-29T01:41:49;14.50;55.30
12769;DHT22;6448;48.916;8.990;2022-09-29T01:42:56;14.50;55.30
12769;DHT22;6448;48.916;8.990;2022-09-29T01:44:05;14.60;55.40
12769;DHT22;6448;48.916;8.990;2022-09-29T01:45:11;14.80;55.60
12769;DHT22;6448;48.916;8.990;2022-09-29T01:46:21;14.50;55.50
12769;DHT22;6448;48.916;8.990;2022-09-29T01:47:26;14.50;55.50
12769;DHT22;6448;48.916;8.990;2022-09-29T01:48:31;14.50;55.50
12769;DHT22;6448;48.916;8.990;2022-09-29T01:49:39;14.70;55.70
12769;DHT22;6448;48.916;8.990;2022-09-29T01:50:43;14.60;55.70
12769;DHT22;6448;48.916;8.990;2022-09-29T01:51:51;14.50;55.70
12769;DHT22;6448;48.916;8.990;2022-09-29T01:52:58;14.70;55.80
12769;DHT22;6448;48.916;8.990;2022-09-29T01:54:03;14.60;55.70
12769;DHT22;6448;48.916;8.990;2022-09-29T01:55:08;14.50;55.70
12769;DHT22;6448;48.916;8.990;2022-09-29T01:56:13;14.50;55.70
12769;DHT22;6448;48.916;8.990;2022-09-29T01:57:22;14.50;55.70
12769;DHT22;6448;48.916;8.990;2022-09-29T01:58:28;14.50;55.80
12769;DHT22;6448;48.916;8.990;2022-09-29T01:59:42;14.50;55.90
12769;DHT22;6448;48.916;8.990;2022-09-29T02:00:48;14.50;55.80
12769;DHT22;6448;48.916;8.990;2022-09-29T02:01:55;14.50;55.90
12769;DHT22;6448;48.916;8.990;2022-09-29T02:03:00;14.50;55.90
12769;DHT22;6448;48.916;8.990;2022-09-29T02:04:12;14.50;56.00
12769;DHT22;6448;48.916;8.990;2022-09-29T02:05:18;14.50;56.00
12769;DHT22;6448;48.916;8.990;2022-09-29T02:06:22;14.50;56.00
12769;DHT22;6448;48.916;8.990;2022-09-29T02:07:28;14.40;56.60
12769;DHT22;6448;48.916;8.990;2022-09-29T02:08:36;14.40;55.90
12769;DHT22;6448;48.916;8.990;2022-09-29T02:09:39;14.50;56.00
12769;DHT22;6448;48.916;8.990;2022-09-29T02:10:47;14.50;56.10
12769;DHT22;6448;48.916;8.990;2022-09-29T02:11:50;14.50;56.10
12769;DHT22;6448;48.916;8.990;2022-09-29T02:12:54;14.50;56.10
12769;DHT22;6448;48.916;8.990;2022-09-29T02:14:00;14.50;56.20
12769;DHT22;6448;48.916;8.990;2022-09-29T02:15:06;14.60;56.30
12769;DHT22;6448;48.916;8.990;2022-09-29T02:16:10;14.50;56.20
12769;DHT22;6448;48.916;8.990;2022-09-29T02:17:16;14.50;56.20
12769;DHT22;6448;48.916;8.990;2022-09-29T02:18:21;14.60;56.30
12769;DHT22;6448;48.916;8.990;2022-09-29T02:19:25;14.60;56.30
12769;DHT22;6448;48.916;8.990;2022-09-29T02:20:26;14.70;56.30
12769;DHT22;6448;48.916;8.990;2022-09-29T02:21:28;14.70;56.30
12769;DHT22;6448;48.916;8.990;2022-09-29T02:22:29;14.50;56.20
12769;DHT22;6448;48.916;8.990;2022-09-29T02:23:31;14.60;56.30
12769;DHT22;6448;48.916;8.990;2022-09-29T02:24:32;14.50;56.20
12769;DHT22;6448;48.916;8.990;2022-09-29T02:25:35;14.50;56.30
12769;DHT22;6448;48.916;8.990;2022-09-29T02:26:37;14.50;56.30
12769;DHT22;6448;48.916;8.990;2022-09-29T02:27:41;14.50;56.30
12769;DHT22;6448;48.916;8.990;2022-09-29T02:28:42;14.70;56.40
12769;DHT22;6448;48.916;8.990;2022-09-29T02:29:44;14.40;56.30
12769;DHT22;6448;48.916;8.990;2022-09-29T02:30:48;14.40;56.50
12769;DHT22;6448;48.916;8.990;2022-09-29T02:31:50;14.50;56.50
12769;DHT22;6448;48.916;8.990;2022-09-29T02:32:53;14.40;56.40
12769;DHT22;6448;48.916;8.990;2022-09-29T02:33:55;14.70;56.50
12769;DHT22;6448;48.916;8.990;2022-09-29T02:34:56;14.40;56.40
12769;DHT22;6448;48.916;8.990;2022-09-29T02:36:08;14.40;56.40
12769;DHT22;6448;48.916;8.990;2022-09-29T02:37:30;14.40;56.50
12769;DHT22;6448;48.916;8.990;2022-09-29T02:38:40;14.40;56.50
12769;DHT22;6448;48.916;8.990;2022-09-29T02:39:50;14.60;56.60
12769;DHT22;6448;48.916;8.990;2022-09-29T02:41:00;14.40;56.60
12769;DHT22;6448;48.916;8.990;2022-09-29T02:42:14;14.40;56.50
12769;DHT22;6448;48.916;8.990;2022-09-29T02:43:29;14.60;56.70
12769;DHT22;6448;48.916;8.990;2022-09-29T02:44:42;14.40;56.60
12769;DHT22;6448;48.916;8.990;2022-09-29T02:45:58;14.50;56.70
12769;DHT22;6448;48.916;8.990;2022-09-29T02:47:22;14.50;56.70
12769;DHT22;6448;48.916;8.990;2022-09-29T02:48:48;14.40;56.60
12769;DHT22;6448;48.916;8.990;2022-09-29T02:50:06;14.40;56.60
12769;DHT22;6448;48.916;8.990;2022-09-29T02:51:18;14.40;56.60
12769;DHT22;6448;48.916;8.990;2022-09-29T02:52:25;14.30;56.60
12769;DHT22;6448;48.916;8.990;2022-09-29T02:53:45;14.60;56.70
12769;DHT22;6448;48.916;8.990;2022-09-29T02:54:56;14.40;56.70
12769;DHT22;6448;48.916;8.990;2022-09-29T02:56:06;14.40;56.70
12769;DHT22;6448;48.916;8.990;2022-09-29T02:57:16;14.50;56.70
12769;DHT22;6448;48.916;8.990;2022-09-29T02:58:27;14.40;56.80
12769;DHT22;6448;48.916;8.990;2022-09-29T02:59:34;14.60;56.80
12769;DHT22;6448;48.916;8.990;2022-09-29T03:00:38;14.40;56.70
12769;DHT22;6448;48.916;8.990;2022-09-29T03:01:48;14.40;56.70
12769;DHT22;6448;48.916;8.990;2022-09-29T03:02:50;14.60;56.80
12769;DHT22;6448;48.916;8.990;2022-09-29T03:03:52;14.40;57.30
12769;DHT22;6448;48.916;8.990;2022-09-29T03:04:54;14.40;56.70
12769;DHT22;6448;48.916;8.990;2022-09-29T03:05:55;14.40;56.70
12769;DHT22;6448;48.916;8.990;2022-09-29T03:06:57;14.40;56.70
12769;DHT22;6448;48.916;8.990;2022-09-29T03:07:58;14.50;56.80
12769;DHT22;6448;48.916;8.990;2022-09-29T03:09:00;14.40;56.80
12769;DHT22;6448;48.916;8.990;2022-09-29T03:10:01;14.40;56.80
12769;DHT22;6448;48.916;8.990;2022-09-29T03:11:03;14.50;56.90
12769;DHT22;6448;48.916;8.990;2022-09-29T03:12:04;14.40;56.80
12769;DHT22;6448;48.916;8.990;2022-09-29T03:13:05;14.40;56.80
12769;DHT22;6448;48.916;8.990;2022-09-29T03:14:06;14.40;56.80
12769;DHT22;6448;48.916;8.990;2022-09-29T03:15:09;14.40;56.90
12769;DHT22;6448;48.916;8.990;2022-09-29T03:16:11;14.40;56.90
12769;DHT22;6448;48.916;8.990;2022-09-29T03:17:13;14.50;57.00
12769;DHT22;6448;48.916;8.990;2022-09-29T03:18:14;14.40;56.90
12769;DHT22;6448;48.916;8.990;2022-09-29T03:19:17;14.50;57.10
12769;DHT22;6448;48.916;8.990;2022-09-29T03:20:18;14.60;57.10
12769;DHT22;6448;48.916;8.990;2022-09-29T03:21:21;14.40;57.10
12769;DHT22;6448;48.916;8.990;2022-09-29T03:22:22;14.40;57.20
12769;DHT22;6448;48.916;8.990;2022-09-29T03:23:24;14.40;57.20
12769;DHT22;6448;48.916;8.990;2022-09-29T03:24:24;14.40;57.10
12769;DHT22;6448;48.916;8.990;2022-09-29T03:25:26;14.40;57.20
12769;DHT22;6448;48.916;8.990;2022-09-29T03:26:27;14.40;57.20
12769;DHT22;6448;48.916;8.990;2022-09-29T03:27:30;14.40;57.30
12769;DHT22;6448;48.916;8.990;2022-09-29T03:28:31;14.30;57.20
12769;DHT22;6448;48.916;8.990;2022-09-29T03:29:33;14.40;57.20
12769;DHT22;6448;48.916;8.990;2022-09-29T03:30:34;14.60;57.30
12769;DHT22;6448;48.916;8.990;2022-09-29T03:31:37;14.50;57.30
12769;DHT22;6448;48.916;8.990;2022-09-29T03:32:38;14.40;57.30
12769;DHT22;6448;48.916;8.990;2022-09-29T03:33:41;14.40;57.30
12769;DHT22;6448;48.916;8.990;2022-09-29T03:34:43;14.40;57.30
12769;DHT22;6448;48.916;8.990;2022-09-29T03:35:45;14.30;57.20
12769;DHT22;6448;48.916;8.990;2022-09-29T03:36:46;14.40;57.30
12769;DHT22;6448;48.916;8.990;2022-09-29T03:37:48;14.30;57.30
12769;DHT22;6448;48.916;8.990;2022-09-29T03:38:48;14.40;57.30
12769;DHT22;6448;48.916;8.990;2022-09-29T03:39:50;14.30;57.30
12769;DHT22;6448;48.916;8.990;2022-09-29T03:40:51;14.40;57.30
12769;DHT22;6448;48.916;8.990;2022-09-29T03:41:53;14.40;57.30
12769;DHT22;6448;48.916;8.990;2022-09-29T03:42:54;14.60;57.50
12769;DHT22;6448;48.916;8.990;2022-09-29T03:43:56;14.40;57.40
12769;DHT22;6448;48.916;8.990;2022-09-29T03:44:57;14.40;57.30
12769;DHT22;6448;48.916;8.990;2022-09-29T03:45:59;14.50;57.40
12769;DHT22;6448;48.916;8.990;2022-09-29T03:47:00;14.60;57.50
12769;DHT22;6448;48.916;8.990;2022-09-29T03:48:02;14.40;57.30
12769;DHT22;6448;48.916;8.990;2022-09-29T03:49:02;14.40;57.30
12769;DHT22;6448;48.916;8.990;2022-09-29T03:50:06;14.40;57.90
12769;DHT22;6448;48.916;8.990;2022-09-29T03:51:07;14.40;57.30
12769;DHT22;6448;48.916;8.990;2022-09-29T03:52:09;14.40;57.30
12769;DHT22;6448;48.916;8.990;2022-09-29T03:53:10;14.40;57.30
12769;DHT22;6448;48.916;8.990;2022-09-29T03:54:12;14.40;57.30
12769;DHT22;6448;48.916;8.990;2022-09-29T03:55:13;14.40;57.30
12769;DHT22;6448;48.916;8.990;2022-09-29T03:56:15;14.40;57.30
12769;DHT22;6448;48.916;8.990;2022-09-29T03:57:16;14.40;57.20
12769;DHT22;6448;48.916;8.990;2022-09-29T03:58:18;14.40;57.30
12769;DHT22;6448;48.916;8.990;2022-09-29T03:59:19;14.40;57.30
12769;DHT22;6448;48.916;8.990;2022-09-29T04:00:21;14.50;57.40
12769;DHT22;6448;48.916;8.990;2022-09-29T04:01:23;14.60;57.40
12769;DHT22;6448;48.916;8.990;2022-09-29T04:02:23;14.60;57.40
12769;DHT22;6448;48.916;8.990;2022-09-29T04:03:25;14.50;57.30
12769;DHT22;6448;48.916;8.990;2022-09-29T04:04:26;14.40;57.20
12769;DHT22;6448;48.916;8.990;2022-09-29T04:05:29;14.40;57.30
12769;DHT22;6448;48.916;8.990;2022-09-29T04:06:30;14.50;57.30
12769;DHT22;6448;48.916;8.990;2022-09-29T04:07:32;14.40;57.30
12769;DHT22;6448;48.916;8.990;2022-09-29T04:08:34;14.40;57.20
12769;DHT22;6448;48.916;8.990;2022-09-29T04:09:36;14.60;57.40
12769;DHT22;6448;48.916;8.990;2022-09-29T04:10:38;14.40;57.30
12769;DHT22;6448;48.916;8.990;2022-09-29T04:11:40;14.50;57.30
12769;DHT22;6448;48.916;8.990;2022-09-29T04:12:41;14.40;57.20
12769;DHT22;6448;48.916;8.990;2022-09-29T04:13:43;14.40;57.20
12769;DHT22;6448;48.916;8.990;2022-09-29T04:14:43;14.40;57.20
12769;DHT22;6448;48.916;8.990;2022-09-29T04:15:45;14.50;57.20
12769;DHT22;6448;48.916;8.990;2022-09-29T04:16:46;14.40;57.20
12769;DHT22;6448;48.916;8.990;2022-09-29T04:17:48;14.40;57.10
12769;DHT22;6448;48.916;8.990;2022-09-29T04:18:48;14.40;57.70
12769;DHT22;6448;48.916;8.990;2022-09-29T04:19:50;14.70;57.20
12769;DHT22;6448;48.916;8.990;2022-09-29T04:20:53;14.40;57.00
12769;DHT22;6448;48.916;8.990;2022-09-29T04:21:56;14.40;57.00
12769;DHT22;6448;48.916;8.990;2022-09-29T04:22:58;14.50;57.10
12769;DHT22;6448;48.916;8.990;2022-09-29T04:24:00;14.40;57.10
12769;DHT22;6448;48.916;8.990;2022-09-29T04:25:01;14.50;57.10
12769;DHT22;6448;48.916;8.990;2022-09-29T04:26:03;14.40;57.00
12769;DHT22;6448;48.916;8.990;2022-09-29T04:27:05;14.40;57.00
12769;DHT22;6448;48.916;8.990;2022-09-29T04:28:06;14.40;57.00
12769;DHT22;6448;48.916;8.990;2022-09-29T04:29:07;14.60;57.10
12769;DHT22;6448;48.916;8.990;2022-09-29T04:30:10;14.40;57.00
12769;DHT22;6448;48.916;8.990;2022-09-29T04:31:11;14.40;57.00
12769;DHT22;6448;48.916;8.990;2022-09-29T04:32:13;14.40;56.90
12769;DHT22;6448;48.916;8.990;2022-09-29T04:33:14;14.40;56.90
12769;DHT22;6448;48.916;8.990;2022-09-29T04:34:16;14.40;57.00
12769;DHT22;6448;48.916;8.990;2022-09-29T04:35:16;14.60;57.10
12769;DHT22;6448;48.916;8.990;2022-09-29T04:36:20;14.60;57.10
12769;DHT22;6448;48.916;8.990;2022-09-29T04:37:21;14.60;57.10
12769;DHT22;6448;48.916;8.990;2022-09-29T04:38:23;14.70;57.10
12769;DHT22;6448;48.916;8.990;2022-09-29T04:39:23;14.50;57.00
12769;DHT22;6448;48.916;8.990;2022-09-29T04:40:26;14.40;56.90
12769;DHT22;6448;48.916;8.990;2022-09-29T04:41:28;14.40;56.90
12769;DHT22;6448;48.916;8.990;2022-09-29T04:42:33;14.70;57.10
12769;DHT22;6448;48.916;8.990;2022-09-29T04:43:33;14.60;57.10
12769;DHT22;6448;48.916;8.990;2022-09-29T04:44:35;14.60;57.10
12769;DHT22;6448;48.916;8.990;2022-09-29T04:45:36;14.40;57.00
12769;DHT22;6448;48.916;8.990;2022-09-29T04:46:38;14.40;57.00
12769;DHT22;6448;48.916;8.990;2022-09-29T04:47:39;14.40;57.00
12769;DHT22;6448;48.916;8.990;2022-09-29T04:48:40;14.60;57.20
12769;DHT22;6448;48.916;8.990;2022-09-29T04:49:41;14.40;57.10
12769;DHT22;6448;48.916;8.990;2022-09-29T04:50:43;14.50;57.10
12769;DHT22;6448;48.916;8.990;2022-09-29T04:51:46;14.40;57.10
12769;DHT22;6448;48.916;8.990;2022-09-29T04:52:48;14.40;57.10
12769;DHT22;6448;48.916;8.990;2022-09-29T04:53:48;14.40;57.00
12769;DHT22;6448;48.916;8.990;2022-09-29T04:54:52;14.40;57.10
12769;DHT22;6448;48.916;8.990;2022-09-29T04:55:53;14.40;57.00
12769;DHT22;6448;48.916;8.990;2022-09-29T04:56:55;14.40;57.00
12769;DHT22;6448;48.916;8.990;2022-09-29T04:57:56;14.50;57.00
12769;DHT22;6448;48.916;8.990;2022-09-29T04:58:58;14.40;57.00
12769;DHT22;6448;48.916;8.990;2022-09-29T04:59:59;14.40;56.90
12769;DHT22;6448;48.916;8.990;2022-09-29T05:01:06;14.40;56.90
12769;DHT22;6448;48.916;8.990;2022-09-29T05:02:06;14.40;56.90
12769;DHT22;6448;48.916;8.990;2022-09-29T05:03:08;14.60;56.90
12769;DHT22;6448;48.916;8.990;2022-09-29T05:04:09;14.40;56.70
12769;DHT22;6448;48.916;8.990;2022-09-29T05:05:13;14.40;56.80
12769;DHT22;6448;48.916;8.990;2022-09-29T05:06:14;14.30;56.70
12769;DHT22;6448;48.916;8.990;2022-09-29T05:07:18;14.40;56.70
12769;DHT22;6448;48.916;8.990;2022-09-29T05:08:18;14.50;56.70
12769;DHT22;6448;48.916;8.990;2022-09-29T05:09:20;14.30;56.60
12769;DHT22;6448;48.916;8.990;2022-09-29T05:10:21;14.30;56.60
12769;DHT22;6448;48.916;8.990;2022-09-29T05:11:23;14.50;56.70
12769;DHT22;6448;48.916;8.990;2022-09-29T05:12:24;14.30;56.70
12769;DHT22;6448;48.916;8.990;2022-09-29T05:13:25;14.30;56.60
12769;DHT22;6448;48.916;8.990;2022-09-29T05:14:26;14.30;56.60
12769;DHT22;6448;48.916;8.990;2022-09-29T05:15:28;14.30;56.70
12769;DHT22;6448;48.916;8.990;2022-09-29T05:16:29;14.40;56.60
12769;DHT22;6448;48.916;8.990;2022-09-29T05:17:32;14.40;56.70
12769;DHT22;6448;48.916;8.990;2022-09-29T05:18:33;14.30;56.60
12769;DHT22;6448;48.916;8.990;2022-09-29T05:19:35;14.40;56.70
12769;DHT22;6448;48.916;8.990;2022-09-29T05:20:37;14.40;56.70
12769;DHT22;6448;48.916;8.990;2022-09-29T05:21:38;14.30;56.60
12769;DHT22;6448;48.916;8.990;2022-09-29T05:22:41;14.20;56.60
12769;DHT22;6448;48.916;8.990;2022-09-29T05:23:42;14.30;56.60
12769;DHT22;6448;48.916;8.990;2022-09-29T05:24:44;14.30;56.60
12769;DHT22;6448;48.916;8.990;2022-09-29T05:25:44;14.30;56.60
12769;DHT22;6448;48.916;8.990;2022-09-29T05:26:46;14.40;56.80
12769;DHT22;6448;48.916;8.990;2022-09-29T05:27:47;14.30;56.70
12769;DHT22;6448;48.916;8.990;2022-09-29T05:28:49;14.40;56.80
12769;DHT22;6448;48.916;8.990;2022-09-29T05:29:51;14.40;56.70
12769;DHT22;6448;48.916;8.990;2022-09-29T05:30:52;14.30;56.60
12769;DHT22;6448;48.916;8.990;2022-09-29T05:31:53;14.20;56.60
12769;DHT22;6448;48.916;8.990;2022-09-29T05:32:54;14.30;56.60
12769;DHT22;6448;48.916;8.990;2022-09-29T05:33:56;14.20;56.60
12769;DHT22;6448;48.916;8.990;2022-09-29T05:34:57;14.20;56.70
12769;DHT22;6448;48.916;8.990;2022-09-29T05:36:02;14.20;56.60
12769;DHT22;6448;48.916;8.990;2022-09-29T05:37:05;14.20;56.60
12769;DHT22;6448;48.916;8.990;2022-09-29T05:38:08;14.20;56.70
12769;DHT22;6448;48.916;8.990;2022-09-29T05:39:09;14.20;56.60
12769;DHT22;6448;48.916;8.990;2022-09-29T05:40:10;14.20;56.60
12769;DHT22;6448;48.916;8.990;2022-09-29T05:41:12;14.20;56.60
12769;DHT22;6448;48.916;8.990;2022-09-29T05:42:15;14.20;56.70
12769;DHT22;6448;48.916;8.990;2022-09-29T05:43:16;14.20;56.70
12769;DHT22;6448;48.916;8.990;2022-09-29T05:44:18;14.20;56.60
12769;DHT22;6448;48.916;8.990;2022-09-29T05:45:19;14.30;56.70
12769;DHT22;6448;48.916;8.990;2022-09-29T05:46:21;14.20;56.60
12769;DHT22;6448;48.916;8.990;2022-09-29T05:47:22;14.20;57.30
12769;DHT22;6448;48.916;8.990;2022-09-29T05:48:24;14.20;56.70
12769;DHT22;6448;48.916;8.990;2022-09-29T05:49:26;14.20;56.70
12769;DHT22;6448;48.916;8.990;2022-09-29T05:50:27;14.20;56.60
12769;DHT22;6448;48.916;8.990;2022-09-29T05:51:29;14.20;56.60
12769;DHT22;6448;48.916;8.990;2022-09-29T05:52:29;14.30;56.60
12769;DHT22;6448;48.916;8.990;2022-09-29T05:53:33;14.20;56.70
12769;DHT22;6448;48.916;8.990;2022-09-29T05:54:33;14.20;56.70
12769;DHT22;6448;48.916;8.990;2022-09-29T05:55:36;14.20;56.60
12769;DHT22;6448;48.916;8.990;2022-09-29T05:56:37;14.30;56.70
12769;DHT22;6448;48.916;8.990;2022-09-29T05:57:38;14.20;56.70
12769;DHT22;6448;48.916;8.990;2022-09-29T05:58:40;14.20;56.70
12769;DHT22;6448;48.916;8.990;2022-09-29T05:59:42;14.20;56.80
12769;DHT22;6448;48.916;8.990;2022-09-29T06:00:44;14.10;56.80
12769;DHT22;6448;48.916;8.990;2022-09-29T06:01:45;14.10;56.70
12769;DHT22;6448;48.916;8.990;2022-09-29T06:02:47;14.10;56.80
12769;DHT22;6448;48.916;8.990;2022-09-29T06:03:48;14.10;56.70
12769;DHT22;6448;48.916;8.990;2022-09-29T06:04:50;14.10;56.70
12769;DHT22;6448;48.916;8.990;2022-09-29T06:05:52;14.10;56.60
12769;DHT22;6448;48.916;8.990;2022-09-29T06:06:53;14.10;56.60
12769;DHT22;6448;48.916;8.990;2022-09-29T06:07:56;14.10;56.70
12769;DHT22;6448;48.916;8.990;2022-09-29T06:08:59;14.10;56.70
12769;DHT22;6448;48.916;8.990;2022-09-29T06:10:01;14.10;57.40
12769;DHT22;6448;48.916;8.990;2022-09-29T06:11:04;13.90;56.60
12769;DHT22;6448;48.916;8.990;2022-09-29T06:12:06;14.10;56.90
12769;DHT22;6448;48.916;8.990;2022-09-29T06:13:08;14.10;56.80
12769;DHT22;6448;48.916;8.990;2022-09-29T06:14:09;14.10;56.90
12769;DHT22;6448;48.916;8.990;2022-09-29T06:15:11;14.40;57.00
12769;DHT22;6448;48.916;8.990;2022-09-29T06:16:14;14.10;56.90
12769;DHT22;6448;48.916;8.990;2022-09-29T06:17:15;14.10;56.90
12769;DHT22;6448;48.916;8.990;2022-09-29T06:18:17;14.10;56.90
12769;DHT22;6448;48.916;8.990;2022-09-29T06:19:17;14.10;56.90
12769;DHT22;6448;48.916;8.990;2022-09-29T06:20:19;14.20;57.00
12769;DHT22;6448;48.916;8.990;2022-09-29T06:21:22;14.10;57.00
12769;DHT22;6448;48.916;8.990;2022-09-29T06:22:24;14.10;57.00
12769;DHT22;6448;48.916;8.990;2022-09-29T06:23:27;14.10;57.00
12769;DHT22;6448;48.916;8.990;2022-09-29T06:24:29;14.10;57.00
12769;DHT22;6448;48.916;8.990;2022-09-29T06:25:31;14.10;57.00
12769;DHT22;6448;48.916;8.990;2022-09-29T06:26:32;14.30;57.10
12769;DHT22;6448;48.916;8.990;2022-09-29T06:27:34;14.30;57.30
12769;DHT22;6448;48.916;8.990;2022-09-29T06:28:35;14.10;57.10
12769;DHT22;6448;48.916;8.990;2022-09-29T06:29:37;14.30;57.30
12769;DHT22;6448;48.916;8.990;2022-09-29T06:30:38;14.10;57.20
12769;DHT22;6448;48.916;8.990;2022-09-29T06:31:40;14.40;57.40
12769;DHT22;6448;48.916;8.990;2022-09-29T06:32:42;14.10;57.20
12769;DHT22;6448;48.916;8.990;2022-09-29T06:33:42;14.10;57.20
12769;DHT22;6448;48.916;8.990;2022-09-29T06:34:44;14.10;57.30
12769;DHT22;6448;48.916;8.990;2022-09-29T06:36:07;14.10;57.30
12769;DHT22;6448;48.916;8.990;2022-09-29T06:37:28;14.10;57.40
12769;DHT22;6448;48.916;8.990;2022-09-29T06:38:36;14.20;57.60
12769;DHT22;6448;48.916;8.990;2022-09-29T06:39:39;14.20;57.60
12769;DHT22;6448;48.916;8.990;2022-09-29T06:40:41;14.10;57.60
12769;DHT22;6448;48.916;8.990;2022-09-29T06:41:42;14.30;57.70
12769;DHT22;6448;48.916;8.990;2022-09-29T06:42:48;14.30;57.80
12769;DHT22;6448;48.916;8.990;2022-09-29T06:43:50;14.10;57.70
12769;DHT22;6448;48.916;8.990;2022-09-29T06:44:51;14.10;57.70
12769;DHT22;6448;48.916;8.990;2022-09-29T06:45:54;14.10;57.80
12769;DHT22;6448;48.916;8.990;2022-09-29T06:46:56;14.10;57.80
12769;DHT22;6448;48.916;8.990;2022-09-29T06:47:58;14.20;57.90
12769;DHT22;6448;48.916;8.990;2022-09-29T06:49:00;14.00;57.80
12769;DHT22;6448;48.916;8.990;2022-09-29T06:50:01;14.20;57.70
12769;DHT22;6448;48.916;8.990;2022-09-29T06:51:05;14.20;57.70